Terminal Aerodrome Forecast
Issued by NWS

Home | Current Version | Previous Version | Text Only | Print | Product List | Glossary On
Versions: 1 2 3 4 5 6 7 8 9 10 11 12 13
276
FTUS45 KRIW 290530
TAFCPR
TAF
KCPR 290530Z 2906/3006 06008KT P6SM SKC
     FM291100 22008KT P6SM SKC
     FM291700 22007KT P6SM SCT090
     FM300300 24008KT P6SM BKN090=

USA.gov is the U.S. government's official web portal to all federal, state and local government web resources and services.